Abenra, Denmark
Current Conditions -  °F | °C
As of 8:20 AM on Saturday 25 Oct 2014 (Local Time) from EKSP Reporting Station
Drizzle Drizzle  
Wind Chill: 52°   Ceiling: 400
Heat Index: 52°   Visibility: 1.5mi
Dew Point: 50°   Wind: 13mph
Humidity: 94%   Direction: 190°S
Pressure: 29.91"   Gusts: NA
Location:  55.04°N, 9.42°E
Report Text: EKSP 250620Z 19011KT 2500 -DZ BKN004 BKN006 11/10 Q1013
Loading
Personal Weather Stations






























Interactive Weather Map
Tropical Storm Tracking
New forecast layout! Learn more

10-Day Weather Forecast

Advertisements
Track Severe Weather on mobile